Surface observations / UK / EGMC

Quebec | Canada | USA | France | UK | Europe | Elsewhere

Display: Info & Location for EGMC | Help decoding METAR

EGMC SOUTHEND-ON-SEA -- UK
Raw surface observations for station EGMC
EGMC 021650Z 08008KT 9999 FEW012 BKN044 19/15 Q1023=
EGMC 021620Z 08008KT 9999 FEW014 BKN033 18/14 Q1023=
EGMC 021550Z 07007KT 050V110 9999 FEW018 BKN037 19/14 Q1023=
EGMC 021520Z 07007KT 030V100 9999 BKN023 18/14 Q1023=
EGMC 021450Z 08007KT 030V100 9999 BKN022 19/15 Q1023=
EGMC 021420Z 07008KT 9999 BKN022 18/14 Q1023=
EGMC 021350Z 07007KT 9999 SCT019 BKN030 18/14 Q1023=
EGMC 021320Z 06005KT 010V100 9999 SCT017 BKN021 19/14 Q1023=
EGMC 021250Z 04006KT 010V070 9999 FEW017 BKN031 19/14 Q1023=
EGMC 021220Z 06006KT 020V080 9999 FEW019 BKN020 18/14 Q1023=
EGMC 021150Z 05007KT 010V090 9999 -DZ FEW016 BKN027 18/14 Q1023=
EGMC 021120Z 07008KT 9999 -DZ FEW017 BKN020 18/14 Q1024=
EGMC 021050Z 05005KT 9999 FEW020 BKN030 18/13 Q1023=
EGMC 021020Z 05006KT 9999 FEW018 BKN029 17/13 Q1023=
EGMC 020950Z 06006KT 9999 FEW017 BKN026 17/13 Q1023=
EGMC 020920Z 02006KT 340V080 9999 FEW012 BKN025 17/13 Q1023=
EGMC 020850Z 03006KT 350V060 9999 FEW010 SCT020 16/13 Q1023=
EGMC 020820Z 02006KT 350V050 9999 SCT011 BKN019 15/13 Q1023=
EGMC 020750Z 36006KT 330V030 9999 SCT009 BKN018 16/13 Q1023=
EGMC 020720Z 01005KT 340V050 9999 SCT008 BKN017 15/13 Q1023=
EGMC 020650Z 35005KT 320V050 9999 FEW010 BKN016 15/13 Q1022=
EGMC 020620Z 33004KT 9999 BKN011 14/12 Q1022=
EGMC 020550Z 35005KT 9999 BKN011 14/13 Q1022=
EGMC 020520Z 34003KT 9999 SCT012 13/12 Q1022=
EGMC 020450Z 33004KT 9999 FEW011 14/12 Q1022=
EGMC 020420Z 33003KT 9999 FEW017 14/12 Q1021=
EGMC 020350Z 34003KT 9000 FEW014 14/12 Q1021=
EGMC 020150Z 03007KT 7000 BKN004 15/14 Q1021=
EGMC 020050Z 36005KT 0400 FG BKN001 14/13 Q1021=
EGMC 012250Z 33005KT 9999 FEW040 15/13 Q1021=
EGMC 012220Z 32005KT 9999 FEW035 15/13 Q1021=
EGMC 012150Z 32005KT 9999 FEW046 15/13 Q1021=
EGMC 012120Z 33005KT 9999 SCT046 16/14 Q1021=
EGMC 012050Z VRB03KT 9999 SCT036 16/14 Q1021=
EGMC 012020Z 34004KT 9999 FEW012 SCT025 16/14 Q1020=
EGMC 011950Z 33007KT 9999 VCSH SCT012 BKN016 17/15 Q1020=
EGMC 011920Z 31005KT 9999 VCSH BKN017 18/15 Q1020=
EGMC 011850Z VRB03KT 9999 BKN018 19/16 Q1019=
EGMC 011820Z 25006KT 9999 FEW017 SCT026 19/15 Q1019=
EGMC 011750Z 27006KT 9999 FEW017 SCT022 20/16 Q1019=
EGMC 011720Z 26007KT 9999 SCT015 19/16 Q1019=